createdAt,value
2019-04-29T00:02:10.907Z,90.47
2019-04-29T00:04:38.274Z,90.34
2019-04-29T00:07:06.215Z,90.26
2019-04-29T00:09:33.794Z,90.39
2019-04-29T00:12:01.364Z,90.09
2019-04-29T00:14:29.697Z,90.16
2019-04-29T00:16:59.110Z,90.25
2019-04-29T00:19:46.030Z,90.33
2019-04-29T00:22:14.866Z,90.60
2019-04-29T00:24:42.498Z,90.34
2019-04-29T00:27:10.114Z,90.52
2019-04-29T00:29:38.034Z,90.44
2019-04-29T00:32:05.831Z,90.45
2019-04-29T00:34:33.405Z,90.38
2019-04-29T00:37:05.468Z,90.43
2019-04-29T00:39:32.996Z,90.50
2019-04-29T00:42:05.200Z,90.74
2019-04-29T00:44:32.500Z,90.80
2019-04-29T00:47:00.255Z,90.88
2019-04-29T00:49:27.891Z,90.81
2019-04-29T00:51:55.355Z,90.84
2019-04-29T00:54:25.266Z,91.04
2019-04-29T00:56:52.592Z,90.93
2019-04-29T00:59:19.911Z,90.66
2019-04-29T01:01:47.761Z,90.33
2019-04-29T01:04:15.658Z,90.66
2019-04-29T01:06:42.962Z,91.07
2019-04-29T01:09:13.609Z,90.78
2019-04-29T01:11:41.641Z,90.75
2019-04-29T01:14:09.368Z,90.50
2019-04-29T01:16:37.028Z,90.46
2019-04-29T01:19:04.571Z,90.28
2019-04-29T01:21:32.068Z,89.76
2019-04-29T01:23:59.322Z,90.04
2019-04-29T01:26:30.027Z,90.65
2019-04-29T01:29:05.611Z,90.66
2019-04-29T01:31:33.184Z,90.23
2019-04-29T01:34:02.569Z,90.47
2019-04-29T01:36:33.187Z,90.65
2019-04-29T01:39:01.966Z,90.73
2019-04-29T01:41:41.224Z,90.52
2019-04-29T01:44:10.493Z,90.59
2019-04-29T01:46:37.838Z,90.42
2019-04-29T01:49:05.232Z,90.43
2019-04-29T01:51:32.729Z,90.50
2019-04-29T01:54:00.352Z,90.69
2019-04-29T01:56:28.004Z,90.15
2019-04-29T01:58:55.837Z,90.20
2019-04-29T02:01:23.292Z,90.45
2019-04-29T02:03:51.673Z,90.52
2019-04-29T02:06:19.181Z,90.51
2019-04-29T02:08:47.110Z,90.38
2019-04-29T02:11:14.405Z,90.82
2019-04-29T02:13:41.838Z,90.77
2019-04-29T02:16:09.255Z,91.21
2019-04-29T02:18:36.603Z,91.32
2019-04-29T02:21:05.305Z,91.24
2019-04-29T02:23:46.685Z,91.07
2019-04-29T02:26:14.196Z,91.18
2019-04-29T02:28:41.368Z,91.09
2019-04-29T02:31:27.285Z,91.26
2019-04-29T02:33:54.786Z,91.29
2019-04-29T02:36:22.361Z,91.32
2019-04-29T02:39:08.332Z,91.08
2019-04-29T02:41:54.854Z,91.00
2019-04-29T02:44:22.204Z,91.05
2019-04-29T02:46:49.610Z,91.29
2019-04-29T02:49:17.014Z,91.02
2019-04-29T02:51:49.702Z,90.91
2019-04-29T02:54:17.218Z,91.34
2019-04-29T02:56:52.559Z,91.30
2019-04-29T02:59:34.421Z,91.07
2019-04-29T03:02:04.334Z,90.85
2019-04-29T03:04:38.261Z,90.76
2019-04-29T03:07:05.651Z,91.24
2019-04-29T03:09:34.930Z,90.96
2019-04-29T03:12:02.544Z,91.14
2019-04-29T03:14:30.673Z,90.87
2019-04-29T03:16:58.170Z,91.12
2019-04-29T03:19:30.383Z,90.97
2019-04-29T03:22:02.046Z,91.00
2019-04-29T03:24:30.955Z,91.06
2019-04-29T03:26:58.574Z,91.19
2019-04-29T03:29:25.749Z,91.32
2019-04-29T03:31:54.322Z,91.09
2019-04-29T03:34:22.053Z,90.94
2019-04-29T03:36:49.647Z,90.83
2019-04-29T03:39:17.062Z,90.68
2019-04-29T03:41:44.395Z,90.75
2019-04-29T03:44:11.836Z,90.34
2019-04-29T03:46:39.209Z,90.39
2019-04-29T03:49:06.522Z,90.71
2019-04-29T03:51:34.732Z,90.87
2019-04-29T03:54:02.240Z,90.83
2019-04-29T03:56:30.067Z,91.09
2019-04-29T03:58:57.438Z,91.11
2019-04-29T04:01:32.851Z,90.69
2019-04-29T04:04:05.354Z,90.67
2019-04-29T04:06:32.620Z,90.78
2019-04-29T04:09:05.837Z,90.67
2019-04-29T04:11:31.151Z,90.84
2019-04-29T04:13:58.526Z,90.78
2019-04-29T04:16:44.868Z,90.75
2019-04-29T04:19:12.586Z,90.56
2019-04-29T04:21:40.109Z,90.65
2019-04-29T04:24:07.311Z,90.39
2019-04-29T04:26:34.548Z,90.47
2019-04-29T04:29:01.816Z,90.37
2019-04-29T04:31:29.222Z,90.43
2019-04-29T04:33:56.917Z,90.24
2019-04-29T04:36:24.106Z,90.22
2019-04-29T04:38:51.501Z,90.18
2019-04-29T04:41:18.813Z,90.28
2019-04-29T04:43:46.095Z,90.29
2019-04-29T04:46:13.566Z,90.39
2019-04-29T04:48:40.836Z,90.23
2019-04-29T04:51:08.101Z,90.40
2019-04-29T04:53:35.366Z,90.43
2019-04-29T04:56:03.419Z,90.26
2019-04-29T04:58:32.847Z,90.20
2019-04-29T05:01:00.290Z,90.27
2019-04-29T05:03:27.933Z,89.98
2019-04-29T05:05:55.450Z,90.23
2019-04-29T05:08:24.044Z,90.56
2019-04-29T05:10:51.448Z,90.25
2019-04-29T05:13:27.818Z,90.46
2019-04-29T05:15:48.134Z,90.05
2019-04-29T05:18:15.410Z,90.07
2019-04-29T05:20:43.280Z,90.02
2019-04-29T05:23:10.504Z,90.23
2019-04-29T05:25:37.957Z,90.10
2019-04-29T05:28:05.672Z,90.22
2019-04-29T05:30:32.896Z,90.11
2019-04-29T05:33:00.338Z,90.00
2019-04-29T05:35:30.875Z,90.39
2019-04-29T05:38:01.239Z,90.42
2019-04-29T05:40:42.665Z,90.29
2019-04-29T05:43:11.795Z,89.95
2019-04-29T05:45:46.229Z,89.78
2019-04-29T05:48:16.244Z,89.51
2019-04-29T05:50:47.583Z,89.43
2019-04-29T05:53:17.923Z,89.47
2019-04-29T05:55:45.716Z,89.41
2019-04-29T05:58:13.277Z,89.43
2019-04-29T06:00:43.730Z,89.41
2019-04-29T06:03:11.329Z,89.24
2019-04-29T06:05:38.888Z,88.91
2019-04-29T06:08:06.465Z,88.14
2019-04-29T06:10:33.835Z,88.30
2019-04-29T06:13:01.170Z,88.35
2019-04-29T06:15:29.303Z,88.70
2019-04-29T06:17:57.333Z,89.07
2019-04-29T06:20:26.688Z,89.13
2019-04-29T06:22:53.977Z,88.79
2019-04-29T06:25:22.480Z,89.03
2019-04-29T06:27:50.351Z,89.12
2019-04-29T06:30:18.207Z,88.60
2019-04-29T06:32:45.747Z,88.53
2019-04-29T06:35:14.215Z,88.34
2019-04-29T06:37:42.164Z,88.59
2019-04-29T06:40:09.928Z,88.29
2019-04-29T06:42:37.411Z,88.03
2019-04-29T06:45:07.445Z,87.87
2019-04-29T06:47:35.964Z,88.20
2019-04-29T06:50:07.167Z,87.64
2019-04-29T06:52:34.732Z,87.28
2019-04-29T06:55:02.542Z,87.50
2019-04-29T06:57:30.079Z,86.82
2019-04-29T06:59:57.911Z,86.50
2019-04-29T07:02:25.270Z,87.65
2019-04-29T07:04:52.677Z,86.51
2019-04-29T07:07:20.061Z,87.14
2019-04-29T07:09:47.633Z,86.67
2019-04-29T07:12:15.539Z,85.85
2019-04-29T07:14:43.094Z,86.14
2019-04-29T07:17:10.822Z,86.42
2019-04-29T07:19:38.256Z,86.01
2019-04-29T07:22:07.297Z,85.59
2019-04-29T07:24:34.455Z,85.26
2019-04-29T07:27:02.820Z,85.42
2019-04-29T07:29:33.500Z,85.43
2019-04-29T07:32:04.804Z,85.87
2019-04-29T07:34:33.671Z,86.14
2019-04-29T07:36:59.915Z,86.86
2019-04-29T07:39:31.648Z,86.25
2019-04-29T07:41:56.657Z,85.61
2019-04-29T07:44:29.998Z,84.52
2019-04-29T07:47:01.864Z,85.82
2019-04-29T07:49:26.048Z,86.22
2019-04-29T07:51:53.381Z,86.54
2019-04-29T07:54:21.101Z,86.77
2019-04-29T07:56:48.650Z,86.59
2019-04-29T07:59:16.122Z,86.77
2019-04-29T08:01:43.524Z,86.44
2019-04-29T08:04:11.113Z,86.51
2019-04-29T08:06:42.780Z,87.00
2019-04-29T08:09:09.714Z,86.82
2019-04-29T08:11:37.435Z,86.94
2019-04-29T08:14:04.763Z,87.17
2019-04-29T08:16:32.410Z,86.42
2019-04-29T08:18:59.682Z,86.23
2019-04-29T08:21:27.176Z,86.10
2019-04-29T08:23:54.708Z,86.63
2019-04-29T08:26:22.128Z,86.78
2019-04-29T08:28:53.031Z,86.33
2019-04-29T08:31:21.030Z,86.05
2019-04-29T08:33:48.507Z,86.07
2019-04-29T08:36:16.054Z,85.74
2019-04-29T08:38:43.521Z,85.64
2019-04-29T08:41:10.913Z,84.91
2019-04-29T08:44:14.661Z,85.00
2019-04-29T08:46:27.990Z,85.03
2019-04-29T08:49:01.093Z,85.47
2019-04-29T08:51:26.704Z,85.36
2019-04-29T08:53:54.162Z,85.41
2019-04-29T08:56:21.373Z,85.01
2019-04-29T08:58:49.632Z,84.37
2019-04-29T09:01:17.986Z,84.36
2019-04-29T09:03:45.442Z,84.06
2019-04-29T09:06:12.769Z,84.39
2019-04-29T09:08:54.163Z,84.47
2019-04-29T09:11:12.818Z,84.36
2019-04-29T09:13:39.183Z,84.20
2019-04-29T09:16:07.202Z,84.21
2019-04-29T09:18:34.618Z,84.46
2019-04-29T09:21:01.970Z,84.45
2019-04-29T09:23:31.512Z,83.93
2019-04-29T09:26:02.831Z,83.69
2019-04-29T09:28:30.426Z,83.69
2019-04-29T09:30:57.730Z,83.52
2019-04-29T09:33:25.239Z,83.35
2019-04-29T09:35:52.718Z,83.64
2019-04-29T09:38:20.149Z,83.37
2019-04-29T09:40:49.402Z,82.89
2019-04-29T09:43:33.662Z,82.96
2019-04-29T09:46:06.703Z,83.52
2019-04-29T09:48:34.134Z,82.92
2019-04-29T09:51:16.382Z,82.62
2019-04-29T09:53:32.877Z,82.59
2019-04-29T09:56:00.288Z,82.64
2019-04-29T09:58:27.964Z,83.24
2019-04-29T10:01:01.339Z,83.67
2019-04-29T10:03:47.183Z,83.77
2019-04-29T10:06:16.522Z,83.44
2019-04-29T10:08:44.066Z,83.82
2019-04-29T10:11:12.351Z,83.57
2019-04-29T10:13:39.888Z,83.13
2019-04-29T10:16:09.692Z,82.86
2019-04-29T10:18:44.984Z,83.44
2019-04-29T10:21:19.638Z,83.02
2019-04-29T10:23:43.988Z,83.17
2019-04-29T10:26:11.353Z,83.57
2019-04-29T10:28:40.463Z,83.58
2019-04-29T10:31:08.299Z,84.06
2019-04-29T10:33:35.626Z,83.68
2019-04-29T10:36:07.188Z,83.83
2019-04-29T10:38:34.416Z,83.65
2019-04-29T10:41:10.171Z,83.75
2019-04-29T10:43:56.339Z,84.30
2019-04-29T10:46:30.002Z,84.15
2019-04-29T10:49:08.522Z,84.29
2019-04-29T10:51:36.388Z,84.16
2019-04-29T10:54:04.696Z,84.57
2019-04-29T10:56:35.291Z,84.59
2019-04-29T10:59:04.640Z,84.47
2019-04-29T11:02:19.837Z,84.54
2019-04-29T11:04:54.301Z,84.61
2019-04-29T11:07:29.566Z,84.58
2019-04-29T11:09:59.071Z,84.04
2019-04-29T11:12:26.493Z,84.16
2019-04-29T11:14:53.903Z,84.35
2019-04-29T11:17:23.232Z,84.15
2019-04-29T11:19:52.043Z,84.89
2019-04-29T11:22:21.527Z,84.82
2019-04-29T11:25:07.677Z,84.56
2019-04-29T11:27:56.224Z,84.60
2019-04-29T11:30:29.650Z,84.23
2019-04-29T11:33:00.126Z,84.86
2019-04-29T11:35:29.806Z,84.97
2019-04-29T11:37:59.904Z,84.70
2019-04-29T11:40:42.531Z,85.19
2019-04-29T11:42:57.861Z,85.20
2019-04-29T11:45:25.624Z,85.25
2019-04-29T11:47:53.243Z,84.51
2019-04-29T11:50:27.068Z,84.75
2019-04-29T11:52:55.669Z,84.40
2019-04-29T11:55:23.211Z,84.76
2019-04-29T11:57:58.350Z,84.86
2019-04-29T12:00:28.971Z,85.38
2019-04-29T12:02:58.440Z,85.24
2019-04-29T12:05:30.963Z,86.06
2019-04-29T12:07:58.350Z,85.84
2019-04-29T12:10:25.780Z,86.67
2019-04-29T12:12:53.237Z,86.27
2019-04-29T12:15:28.787Z,86.01
2019-04-29T12:18:15.482Z,86.86
2019-04-29T12:20:51.707Z,86.66
2019-04-29T12:23:20.171Z,86.90
2019-04-29T12:25:48.611Z,87.14
2019-04-29T12:28:19.418Z,86.64
2019-04-29T12:30:47.296Z,86.03
2019-04-29T12:33:16.944Z,86.84
2019-04-29T12:36:05.241Z,85.97
2019-04-29T12:38:39.662Z,86.04
2019-04-29T12:41:20.618Z,86.79
2019-04-29T12:43:59.121Z,87.15
2019-04-29T12:46:26.023Z,87.47
2019-04-29T12:48:53.359Z,87.17
2019-04-29T12:51:20.881Z,87.14
2019-04-29T12:53:48.215Z,86.54
2019-04-29T12:56:17.731Z,86.38
2019-04-29T12:58:50.222Z,85.92
2019-04-29T13:01:20.498Z,86.36
2019-04-29T13:03:59.869Z,85.81
2019-04-29T13:06:39.192Z,85.06
2019-04-29T13:09:17.237Z,85.72
2019-04-29T13:11:40.924Z,86.36
2019-04-29T13:14:04.599Z,86.50
2019-04-29T13:16:32.074Z,86.61
2019-04-29T13:19:20.323Z,86.67
2019-04-29T13:21:47.400Z,86.87
2019-04-29T13:24:23.689Z,86.99
2019-04-29T13:26:45.679Z,87.32
2019-04-29T13:29:26.261Z,87.44
2019-04-29T13:31:42.504Z,87.51
2019-04-29T13:34:23.636Z,87.54
2019-04-29T13:36:41.247Z,87.69
2019-04-29T13:39:10.368Z,87.26
2019-04-29T13:41:57.358Z,87.21
2019-04-29T13:44:07.940Z,87.61
2019-04-29T13:46:40.474Z,87.55
2019-04-29T13:49:13.542Z,87.12
2019-04-29T13:51:41.411Z,87.13
2019-04-29T13:54:09.068Z,86.73
2019-04-29T13:56:54.657Z,86.78
2019-04-29T13:59:10.711Z,87.20
2019-04-29T14:02:01.458Z,86.93
2019-04-29T14:04:26.204Z,87.67
2019-04-29T14:06:57.207Z,87.94
2019-04-29T14:09:23.330Z,88.11
2019-04-29T14:12:01.851Z,87.95
2019-04-29T14:14:22.650Z,87.70
2019-04-29T14:16:49.586Z,87.77
2019-04-29T14:19:20.583Z,87.69
2019-04-29T14:21:46.212Z,87.92
2019-04-29T14:24:13.692Z,88.13
2019-04-29T14:26:42.114Z,88.08
2019-04-29T14:29:10.577Z,88.15
2019-04-29T14:31:38.515Z,88.14
2019-04-29T14:34:08.093Z,87.80
2019-04-29T14:36:35.595Z,87.89
2019-04-29T14:39:06.803Z,87.55
2019-04-29T14:41:36.321Z,87.68
2019-04-29T14:44:07.360Z,87.10
2019-04-29T14:46:38.432Z,87.08
2019-04-29T14:49:24.503Z,87.55
2019-04-29T14:51:52.077Z,87.31
2019-04-29T14:54:19.894Z,86.75
2019-04-29T14:56:47.092Z,86.53
2019-04-29T14:59:15.117Z,86.19
2019-04-29T15:01:44.781Z,85.87
2019-04-29T15:04:18.260Z,86.49
2019-04-29T15:06:45.014Z,86.35
2019-04-29T15:09:17.484Z,86.92
2019-04-29T15:11:54.212Z,87.02
2019-04-29T15:14:42.386Z,87.14
2019-04-29T15:17:17.842Z,86.92
2019-04-29T15:19:48.936Z,86.37
2019-04-29T15:22:18.594Z,85.93
2019-04-29T15:24:46.128Z,86.50
2019-04-29T15:27:13.681Z,86.27
2019-04-29T15:29:40.990Z,86.97
2019-04-29T15:32:11.364Z,86.89
2019-04-29T15:34:43.702Z,87.25
2019-04-29T15:37:08.007Z,87.35
2019-04-29T15:39:35.456Z,87.55
2019-04-29T15:42:06.946Z,87.82
2019-04-29T15:44:34.218Z,87.83
2019-04-29T15:47:01.769Z,88.07
2019-04-29T15:49:29.256Z,88.39
2019-04-29T15:51:56.701Z,88.70
2019-04-29T15:54:26.005Z,88.51
2019-04-29T15:56:53.452Z,88.80
2019-04-29T15:59:21.844Z,88.22
2019-04-29T16:01:49.246Z,88.58
2019-04-29T16:04:37.048Z,88.72
2019-04-29T16:07:19.513Z,88.72
2019-04-29T16:09:51.747Z,88.88
2019-04-29T16:12:19.708Z,88.71
2019-04-29T16:14:49.165Z,88.60
2019-04-29T16:17:20.559Z,88.77
2019-04-29T16:19:47.129Z,89.09
2019-04-29T16:22:20.177Z,89.23
2019-04-29T16:24:44.364Z,89.15
2019-04-29T16:27:11.857Z,89.30
2019-04-29T16:29:39.318Z,89.43
2019-04-29T16:32:08.784Z,89.30
2019-04-29T16:34:37.437Z,89.14
2019-04-29T16:37:06.009Z,89.19
2019-04-29T16:39:35.072Z,89.49
2019-04-29T16:42:05.408Z,89.54
2019-04-29T16:44:36.098Z,89.03
2019-04-29T16:47:07.446Z,89.03
2019-04-29T16:49:34.455Z,88.92
2019-04-29T16:52:02.124Z,88.93
2019-04-29T16:54:30.494Z,88.92
2019-04-29T16:56:57.734Z,88.90
2019-04-29T16:59:25.433Z,89.50
2019-04-29T17:01:53.285Z,89.36
2019-04-29T17:04:20.877Z,89.70
2019-04-29T17:07:11.100Z,89.82
2019-04-29T17:09:23.281Z,89.71
2019-04-29T17:11:50.388Z,89.97
2019-04-29T17:14:18.927Z,89.96
2019-04-29T17:16:46.325Z,89.92
2019-04-29T17:19:13.869Z,90.22
2019-04-29T17:21:41.215Z,90.25
2019-04-29T17:24:08.660Z,90.34
2019-04-29T17:26:38.392Z,90.81
2019-04-29T17:29:38.650Z,90.76
2019-04-29T17:32:06.069Z,90.69
2019-04-29T17:34:58.044Z,90.80
2019-04-29T17:37:06.002Z,91.17
2019-04-29T17:39:33.739Z,90.99
2019-04-29T17:42:01.203Z,91.31
2019-04-29T17:44:31.009Z,91.19
2019-04-29T17:47:03.042Z,90.98
2019-04-29T17:49:33.270Z,91.05
2019-04-29T17:52:02.787Z,91.32
2019-04-29T17:54:37.924Z,91.25
2019-04-29T17:57:25.623Z,91.26
2019-04-29T18:00:00.502Z,91.37
2019-04-29T18:02:37.185Z,91.44
2019-04-29T18:05:16.734Z,91.64
2019-04-29T18:07:48.330Z,91.74
2019-04-29T18:10:23.934Z,91.85
2019-04-29T18:12:46.781Z,91.91
2019-04-29T18:15:20.042Z,91.90
2019-04-29T18:17:45.718Z,91.94
2019-04-29T18:20:29.755Z,92.12
2019-04-29T18:23:01.300Z,92.12
2019-04-29T18:25:36.529Z,92.05
2019-04-29T18:28:04.802Z,91.92
2019-04-29T18:30:37.971Z,92.02
2019-04-29T18:33:01.640Z,92.10
2019-04-29T18:35:29.131Z,92.12
2019-04-29T18:37:56.702Z,91.97
2019-04-29T18:40:25.850Z,91.91
2019-04-29T18:42:55.265Z,91.51
2019-04-29T18:45:25.393Z,91.54
2019-04-29T18:47:53.488Z,91.51
2019-04-29T18:50:21.037Z,91.83
2019-04-29T18:52:48.519Z,91.53
2019-04-29T18:55:15.834Z,91.43
2019-04-29T18:57:43.179Z,91.48
2019-04-29T19:00:11.926Z,91.38
2019-04-29T19:02:46.074Z,91.23
2019-04-29T19:05:11.677Z,91.35
2019-04-29T19:07:39.802Z,91.07
2019-04-29T19:10:14.168Z,91.30
2019-04-29T19:12:39.349Z,91.35
2019-04-29T19:15:11.537Z,91.46
2019-04-29T19:17:39.982Z,91.54
2019-04-29T19:20:08.613Z,91.70
2019-04-29T19:22:39.959Z,91.57
2019-04-29T19:25:08.726Z,91.90
2019-04-29T19:27:39.788Z,91.69
2019-04-29T19:30:07.963Z,91.24
2019-04-29T19:32:37.339Z,91.05
2019-04-29T19:35:06.168Z,90.81
2019-04-29T19:37:37.553Z,90.77
2019-04-29T19:40:08.050Z,91.30
2019-04-29T19:42:35.901Z,91.32
2019-04-29T19:45:06.334Z,91.23
2019-04-29T19:47:36.161Z,91.43
2019-04-29T19:50:10.301Z,91.47
2019-04-29T19:52:37.167Z,91.29
2019-04-29T19:55:06.521Z,91.54
2019-04-29T19:57:37.883Z,91.61
2019-04-29T20:00:07.042Z,91.69
2019-04-29T20:02:36.242Z,91.59
2019-04-29T20:05:16.075Z,91.71
2019-04-29T20:07:44.582Z,91.71
2019-04-29T20:10:13.884Z,91.65
2019-04-29T20:12:45.953Z,91.87
2019-04-29T20:15:12.164Z,91.95
2019-04-29T20:17:58.931Z,91.69
2019-04-29T20:20:38.528Z,91.94
2019-04-29T20:23:05.788Z,91.67
2019-04-29T20:25:38.039Z,91.70
2019-04-29T20:28:12.752Z,91.89
2019-04-29T20:30:36.404Z,91.56
2019-04-29T20:33:11.106Z,91.65
2019-04-29T20:35:35.554Z,92.07
2019-04-29T20:38:02.995Z,92.02
2019-04-29T20:40:36.268Z,92.13
2019-04-29T20:43:01.832Z,92.02
2019-04-29T20:45:29.738Z,92.10
2019-04-29T20:47:57.407Z,92.01
2019-04-29T20:50:25.479Z,92.08
2019-04-29T20:53:02.365Z,92.46
2019-04-29T20:55:31.970Z,92.62
2019-04-29T20:58:00.468Z,92.88
2019-04-29T21:00:30.336Z,93.20
2019-04-29T21:02:58.062Z,93.15
2019-04-29T21:05:27.645Z,93.13
2019-04-29T21:08:02.961Z,93.45
2019-04-29T21:10:26.659Z,93.72
2019-04-29T21:13:01.521Z,93.66
2019-04-29T21:15:52.116Z,93.58
2019-04-29T21:18:16.226Z,93.93
2019-04-29T21:20:45.133Z,93.93
2019-04-29T21:23:13.199Z,93.89
2019-04-29T21:25:40.398Z,93.94
2019-04-29T21:28:07.855Z,93.84
2019-04-29T21:30:42.529Z,93.90
2019-04-29T21:33:08.244Z,93.88
2019-04-29T21:35:39.805Z,94.16
2019-04-29T21:38:22.168Z,94.37
2019-04-29T21:40:52.539Z,94.35
2019-04-29T21:43:22.024Z,94.33
2019-04-29T21:45:49.491Z,94.37
2019-04-29T21:48:18.655Z,94.40
2019-04-29T21:50:46.230Z,94.51
2019-04-29T21:53:15.061Z,94.35
2019-04-29T21:55:42.789Z,94.33
2019-04-29T21:58:10.240Z,94.39
2019-04-29T22:00:38.132Z,94.48
2019-04-29T22:03:05.699Z,94.53
2019-04-29T22:05:35.023Z,94.47
2019-04-29T22:08:04.182Z,94.55
2019-04-29T22:10:34.422Z,94.50
2019-04-29T22:13:02.392Z,94.53
2019-04-29T22:15:37.331Z,94.39
2019-04-29T22:18:01.685Z,94.63
2019-04-29T22:20:30.075Z,94.54
2019-04-29T22:22:58.095Z,94.65
2019-04-29T22:25:25.854Z,94.55
2019-04-29T22:27:55.416Z,94.80
2019-04-29T22:30:23.463Z,94.81
2019-04-29T22:32:58.071Z,94.79
2019-04-29T22:35:21.660Z,94.76
2019-04-29T22:37:49.241Z,94.79
2019-04-29T22:40:17.416Z,94.87
2019-04-29T22:42:48.763Z,94.91
2019-04-29T22:45:16.673Z,94.92
2019-04-29T22:47:43.884Z,94.80
2019-04-29T22:50:11.683Z,94.75
2019-04-29T22:52:39.382Z,94.68
2019-04-29T22:55:07.745Z,94.60
2019-04-29T22:57:35.104Z,94.68
2019-04-29T23:00:06.257Z,94.70
2019-04-29T23:02:33.599Z,94.75
2019-04-29T23:05:01.115Z,94.68
2019-04-29T23:07:30.165Z,94.61
2019-04-29T23:09:58.143Z,94.46
2019-04-29T23:12:25.487Z,94.51
2019-04-29T23:14:53.206Z,94.37
2019-04-29T23:17:20.451Z,94.56
2019-04-29T23:19:53.047Z,94.67
2019-04-29T23:22:40.811Z,94.57
2019-04-29T23:25:10.242Z,94.67
2019-04-29T23:27:37.803Z,94.37
2019-04-29T23:30:07.916Z,94.59
2019-04-29T23:32:39.471Z,94.70
2019-04-29T23:35:09.761Z,94.59
2019-04-29T23:37:37.163Z,94.48
2019-04-29T23:40:05.850Z,94.29
2019-04-29T23:42:33.453Z,94.28
2019-04-29T23:45:01.062Z,94.22
2019-04-29T23:47:29.004Z,94.22
2019-04-29T23:49:56.570Z,93.90
2019-04-29T23:52:23.989Z,94.15
2019-04-29T23:54:51.636Z,94.02
2019-04-29T23:57:23.693Z,93.82
2019-04-29T23:59:59.313Z,93.85
